Time;durP1;ratioP1;P1;durP2;ratioP2;P2;SDS_P1;SDS_P2;PMS_P1;PMS_P2;Temp;Humidity;BMP_temperature;BMP_pressure;BME280_temperature;BME280_humidity;BME280_pressure;Samples;Min_cycle;Max_cycle;Signal;HPM_P1;HPM_P2
2021/09/11 00:01:24;;;;;;;66.97;39.65;;;;;;;;;;5069334;28;20451;-67
2021/09/11 00:03:50;;;;;;;68.90;38.70;;;;;;;;;;5076415;28;20373;-67
2021/09/11 00:06:17;;;;;;;71.22;39.85;;;;;;;;;;5076618;28;20071;-67
2021/09/11 00:08:43;;;;;;;58.03;35.65;;;;;;;;;;5074261;28;20052;-67
2021/09/11 00:11:09;;;;;;;56.45;37.17;;;;;;;;;;5060354;28;20083;-67
2021/09/11 00:13:37;;;;;;;62.33;39.30;;;;;;;;;;5083368;28;20067;-67
2021/09/11 00:16:04;;;;;;;62.80;38.00;;;;;;;;;;5072523;28;20041;-67
2021/09/11 00:18:30;;;;;;;61.72;37.13;;;;;;;;;;5072266;28;20131;-67
2021/09/11 00:20:56;;;;;;;64.60;37.10;;;;;;;;;;5071533;28;20116;-67
2021/09/11 00:23:22;;;;;;;57.83;36.20;;;;;;;;;;5072090;28;20077;-67
2021/09/11 00:25:49;;;;;;;59.67;36.13;;;;;;;;;;5074291;28;20036;-67
2021/09/11 00:28:15;;;;;;;57.70;36.10;;;;;;;;;;5070475;28;20459;-67
2021/09/11 00:30:41;;;;;;;64.15;37.10;;;;;;;;;;5078012;28;20556;-67
2021/09/11 00:33:07;;;;;;;59.42;35.60;;;;;;;;;;5092589;28;20419;-67
2021/09/11 00:35:33;;;;;;;57.47;35.17;;;;;;;;;;5095809;28;20387;-67
2021/09/11 00:37:59;;;;;;;62.80;35.25;;;;;;;;;;5096142;28;20070;-67
2021/09/11 00:40:26;;;;;;;56.78;35.83;;;;;;;;;;5099381;28;20051;-67
2021/09/11 00:42:52;;;;;;;67.68;37.20;;;;;;;;;;5093901;28;20040;-67
2021/09/11 00:45:19;;;;;;;69.72;37.47;;;;;;;;;;5094870;28;20044;-67
2021/09/11 00:47:46;;;;;;;64.47;37.85;;;;;;;;;;5093450;28;20040;-67
2021/09/11 00:50:12;;;;;;;70.43;37.63;;;;;;;;;;5096642;28;20527;-67
2021/09/11 00:52:40;;;;;;;79.72;40.95;;;;;;;;;;5092911;28;20043;-67
2021/09/11 00:55:06;;;;;;;71.20;38.03;;;;;;;;;;5078330;28;20039;-67
2021/09/11 00:57:33;;;;;;;61.53;36.45;;;;;;;;;;5078841;28;20104;-67
2021/09/11 00:59:59;;;;;;;50.50;31.60;;;;;;;;;;5086849;28;20047;-67
2021/09/11 01:02:25;;;;;;;49.35;30.58;;;;;;;;;;5083232;28;20399;-67
2021/09/11 01:04:51;;;;;;;42.70;27.48;;;;;;;;;;5074411;28;20048;-67
2021/09/11 01:07:17;;;;;;;37.60;25.05;;;;;;;;;;5099975;28;20032;-67
2021/09/11 01:09:44;;;;;;;31.25;21.95;;;;;;;;;;5102007;28;20119;-67
2021/09/11 01:12:10;;;;;;;32.80;21.67;;;;;;;;;;5099835;28;20108;-67
2021/09/11 01:14:36;;;;;;;30.73;19.42;;;;;;;;;;5080822;28;20040;-67
2021/09/11 01:17:02;;;;;;;30.73;21.35;;;;;;;;;;5095743;28;20150;-67
2021/09/11 01:19:29;;;;;;;32.03;21.10;;;;;;;;;;5075246;28;20043;-67
2021/09/11 01:21:55;;;;;;;30.10;19.60;;;;;;;;;;5097583;28;20052;-67
2021/09/11 01:24:21;;;;;;;28.58;19.38;;;;;;;;;;5099396;28;20136;-67
2021/09/11 01:26:51;;;;;;;25.90;18.13;;;;;;;;;;5077057;28;20098;-67
2021/09/11 01:29:17;;;;;;;30.45;19.85;;;;;;;;;;5097045;28;20027;-67
2021/09/11 01:31:44;;;;;;;32.45;20.48;;;;;;;;;;5099121;28;20048;-67
2021/09/11 01:34:10;;;;;;;34.63;22.17;;;;;;;;;;5096326;28;20063;-67
2021/09/11 01:36:36;;;;;;;36.03;23.98;;;;;;;;;;5098411;28;20117;-67
2021/09/11 01:39:02;;;;;;;33.70;22.55;;;;;;;;;;5075978;28;20383;-67
2021/09/11 01:41:28;;;;;;;34.25;21.95;;;;;;;;;;5093271;28;20040;-67
2021/09/11 01:43:54;;;;;;;32.17;22.60;;;;;;;;;;5084178;28;20445;-67
2021/09/11 01:46:21;;;;;;;30.98;21.27;;;;;;;;;;5082333;28;20043;-67
2021/09/11 01:48:47;;;;;;;32.65;19.88;;;;;;;;;;5078570;28;20047;-67
2021/09/11 01:51:13;;;;;;;30.70;19.60;;;;;;;;;;5099600;28;20047;-67
2021/09/11 01:53:39;;;;;;;27.15;18.85;;;;;;;;;;5102728;28;20058;-67
2021/09/11 01:56:05;;;;;;;30.02;18.15;;;;;;;;;;5078896;28;20044;-67
2021/09/11 01:58:31;;;;;;;26.98;18.17;;;;;;;;;;5060457;28;20517;-67
2021/09/11 02:00:58;;;;;;;29.80;17.70;;;;;;;;;;5078514;28;20505;-67
2021/09/11 02:03:24;;;;;;;28.50;17.17;;;;;;;;;;5074554;28;20042;-67
2021/09/11 02:05:50;;;;;;;22.20;15.65;;;;;;;;;;5092707;28;20046;-67
2021/09/11 02:08:16;;;;;;;27.17;16.35;;;;;;;;;;5094354;28;20040;-67
2021/09/11 02:10:42;;;;;;;21.15;15.27;;;;;;;;;;5093870;28;20047;-67
2021/09/11 02:13:08;;;;;;;28.30;15.90;;;;;;;;;;5100236;28;20385;-67
2021/09/11 02:15:35;;;;;;;22.45;14.55;;;;;;;;;;5102623;28;20123;-67
2021/09/11 02:18:01;;;;;;;21.50;14.32;;;;;;;;;;5092789;28;20097;-67
2021/09/11 02:20:27;;;;;;;21.52;15.13;;;;;;;;;;5075603;28;20078;-67
2021/09/11 02:22:53;;;;;;;21.63;15.15;;;;;;;;;;5075033;28;20047;-67
2021/09/11 02:25:19;;;;;;;20.15;12.88;;;;;;;;;;5097108;28;20051;-67
2021/09/11 02:27:45;;;;;;;22.13;14.50;;;;;;;;;;5104706;28;20118;-67
2021/09/11 02:30:12;;;;;;;21.42;13.38;;;;;;;;;;5081162;28;20443;-67
2021/09/11 02:32:38;;;;;;;18.70;13.00;;;;;;;;;;5083722;28;20059;-67
2021/09/11 02:35:05;;;;;;;25.52;13.75;;;;;;;;;;5100443;28;21373;-67
2021/09/11 02:37:31;;;;;;;20.27;12.73;;;;;;;;;;5100076;28;20399;-67
2021/09/11 02:39:57;;;;;;;21.50;12.45;;;;;;;;;;5092712;28;20040;-67
2021/09/11 02:42:23;;;;;;;22.13;13.95;;;;;;;;;;5091920;28;20036;-67
2021/09/11 02:44:49;;;;;;;23.70;13.63;;;;;;;;;;5094552;28;20147;-67
2021/09/11 02:47:15;;;;;;;22.10;14.05;;;;;;;;;;5095180;28;20081;-67
2021/09/11 02:49:42;;;;;;;22.58;13.75;;;;;;;;;;5075304;28;20116;-67
2021/09/11 02:52:08;;;;;;;21.48;13.85;;;;;;;;;;5072882;28;20149;-67
2021/09/11 02:54:34;;;;;;;22.17;14.35;;;;;;;;;;5080445;28;20494;-67
2021/09/11 02:57:00;;;;;;;25.90;14.30;;;;;;;;;;5091743;28;20047;-67
2021/09/11 02:59:26;;;;;;;19.75;13.43;;;;;;;;;;5096402;28;20063;-67
2021/09/11 03:01:52;;;;;;;21.92;13.00;;;;;;;;;;5092970;28;20101;-67
2021/09/11 03:04:19;;;;;;;21.73;13.05;;;;;;;;;;5078343;28;20038;-67
2021/09/11 03:06:45;;;;;;;23.85;12.98;;;;;;;;;;5073902;28;20051;-67
2021/09/11 03:09:11;;;;;;;21.50;12.30;;;;;;;;;;5092950;28;20032;-67
2021/09/11 03:11:37;;;;;;;26.17;13.93;;;;;;;;;;5097519;28;20035;-67
2021/09/11 03:14:03;;;;;;;27.73;14.50;;;;;;;;;;5096363;28;20115;-67
2021/09/11 03:16:30;;;;;;;26.80;13.45;;;;;;;;;;5081682;28;20044;-67
2021/09/11 03:18:56;;;;;;;25.50;13.75;;;;;;;;;;5076891;28;20144;-67
2021/09/11 03:21:22;;;;;;;23.67;12.27;;;;;;;;;;5099496;28;20051;-67
2021/09/11 03:23:48;;;;;;;22.55;13.38;;;;;;;;;;5096548;28;20050;-67
2021/09/11 03:26:14;;;;;;;26.48;12.75;;;;;;;;;;5095018;28;20040;-67
2021/09/11 03:28:40;;;;;;;24.90;13.40;;;;;;;;;;5097268;28;20039;-67
2021/09/11 03:31:07;;;;;;;30.85;13.80;;;;;;;;;;5077645;28;20046;-67
2021/09/11 03:33:33;;;;;;;29.05;14.18;;;;;;;;;;5074908;28;20044;-67
2021/09/11 03:35:59;;;;;;;26.83;13.60;;;;;;;;;;5089656;28;20071;-67
2021/09/11 03:38:25;;;;;;;26.05;13.75;;;;;;;;;;5080822;28;20559;-67
2021/09/11 03:40:51;;;;;;;24.45;13.38;;;;;;;;;;5097636;28;20036;-67
2021/09/11 03:43:17;;;;;;;26.95;14.15;;;;;;;;;;5083400;28;20048;-67
2021/09/11 03:45:44;;;;;;;24.02;13.82;;;;;;;;;;5097739;28;20562;-67
2021/09/11 03:48:10;;;;;;;25.90;14.52;;;;;;;;;;5096985;28;20051;-67
2021/09/11 03:50:36;;;;;;;33.72;14.20;;;;;;;;;;5093121;28;20483;-67
2021/09/11 03:53:03;;;;;;;24.75;14.25;;;;;;;;;;5094943;28;20039;-67
2021/09/11 03:55:29;;;;;;;34.95;16.35;;;;;;;;;;5092174;28;20123;-67
2021/09/11 03:57:55;;;;;;;30.85;14.70;;;;;;;;;;5094269;28;20521;-67
2021/09/11 04:00:22;;;;;;;27.52;14.32;;;;;;;;;;5097531;28;20070;-67
2021/09/11 04:02:48;;;;;;;29.83;15.88;;;;;;;;;;5099860;28;20123;-67
2021/09/11 04:05:14;;;;;;;35.05;16.45;;;;;;;;;;5092945;28;20051;-67
2021/09/11 04:07:40;;;;;;;35.80;16.20;;;;;;;;;;5093792;28;20083;-67
2021/09/11 04:10:07;;;;;;;29.55;15.20;;;;;;;;;;5102090;28;20039;-67
2021/09/11 04:12:33;;;;;;;28.58;14.75;;;;;;;;;;5097554;28;20109;-67
2021/09/11 04:14:59;;;;;;;34.28;16.20;;;;;;;;;;5078650;28;20063;-67
2021/09/11 04:17:25;;;;;;;33.67;16.17;;;;;;;;;;5096396;28;20044;-67
2021/09/11 04:19:52;;;;;;;30.88;15.85;;;;;;;;;;5076700;28;20043;-67
2021/09/11 04:22:18;;;;;;;31.67;16.10;;;;;;;;;;5092706;28;20059;-67
2021/09/11 04:24:44;;;;;;;28.92;16.33;;;;;;;;;;5100134;28;20054;-67
2021/09/11 04:27:10;;;;;;;31.42;15.93;;;;;;;;;;5100044;28;20086;-67
2021/09/11 04:29:36;;;;;;;34.83;15.85;;;;;;;;;;5102401;28;20039;-67
2021/09/11 04:32:03;;;;;;;37.33;16.65;;;;;;;;;;5106525;28;20066;-67
2021/09/11 04:34:29;;;;;;;32.45;16.13;;;;;;;;;;5100033;28;20516;-67
2021/09/11 04:36:55;;;;;;;31.27;16.58;;;;;;;;;;5100773;28;20035;-67
2021/09/11 04:39:21;;;;;;;29.98;17.25;;;;;;;;;;5100601;28;20059;-67
2021/09/11 04:41:47;;;;;;;31.17;16.33;;;;;;;;;;5100783;28;20063;-68
2021/09/11 04:44:13;;;;;;;35.55;16.67;;;;;;;;;;5097210;28;20051;-68
2021/09/11 04:46:40;;;;;;;31.33;16.60;;;;;;;;;;5078954;28;20452;-68
2021/09/11 04:49:06;;;;;;;32.58;15.60;;;;;;;;;;5099920;28;20044;-67
2021/09/11 04:51:32;;;;;;;41.30;16.98;;;;;;;;;;5076959;28;20048;-68
2021/09/11 04:53:58;;;;;;;33.75;16.23;;;;;;;;;;5099312;28;20131;-68
2021/09/11 04:56:24;;;;;;;38.30;17.63;;;;;;;;;;5097398;28;20048;-68
2021/09/11 04:58:50;;;;;;;33.10;16.70;;;;;;;;;;5085925;28;20047;-68
2021/09/11 05:01:17;;;;;;;37.78;17.27;;;;;;;;;;5082920;28;20119;-68
2021/09/11 05:03:43;;;;;;;35.50;17.98;;;;;;;;;;5081200;28;20071;-67
2021/09/11 05:06:10;;;;;;;40.40;18.63;;;;;;;;;;5098227;28;20044;-68
2021/09/11 05:08:37;;;;;;;34.80;18.00;;;;;;;;;;5081893;28;20054;-68
2021/09/11 05:11:03;;;;;;;34.25;19.75;;;;;;;;;;5095104;28;20116;-68
2021/09/11 05:13:29;;;;;;;40.70;19.08;;;;;;;;;;5084881;28;20100;-68
2021/09/11 05:15:55;;;;;;;44.75;23.33;;;;;;;;;;5094481;28;20046;-67
2021/09/11 05:18:21;;;;;;;46.38;23.55;;;;;;;;;;5097209;28;20062;-67
2021/09/11 05:20:47;;;;;;;44.15;23.23;;;;;;;;;;5096882;28;20046;-67
2021/09/11 05:23:13;;;;;;;40.95;22.13;;;;;;;;;;5078743;28;20046;-67
2021/09/11 05:25:40;;;;;;;52.67;24.30;;;;;;;;;;5100602;28;20103;-67
2021/09/11 05:28:06;;;;;;;45.47;24.17;;;;;;;;;;5081400;28;20043;-67
2021/09/11 05:30:32;;;;;;;43.65;23.15;;;;;;;;;;5079880;28;20104;-67
2021/09/11 05:32:59;;;;;;;39.90;22.33;;;;;;;;;;5064382;28;20132;-67
2021/09/11 05:35:25;;;;;;;46.97;22.88;;;;;;;;;;5057393;28;20040;-67
2021/09/11 05:37:51;;;;;;;45.97;20.88;;;;;;;;;;5081508;28;20059;-67
2021/09/11 05:40:17;;;;;;;41.17;20.20;;;;;;;;;;5076210;28;20526;-67
2021/09/11 05:42:43;;;;;;;42.65;20.75;;;;;;;;;;5063765;28;20376;-67
2021/09/11 05:45:10;;;;;;;45.95;21.35;;;;;;;;;;5082012;28;20057;-68
2021/09/11 05:47:36;;;;;;;43.25;22.65;;;;;;;;;;5077663;28;20045;-67
2021/09/11 05:50:02;;;;;;;40.60;20.75;;;;;;;;;;5078610;28;20040;-67
2021/09/11 05:52:29;;;;;;;45.85;21.98;;;;;;;;;;5079064;28;20082;-67
2021/09/11 05:54:55;;;;;;;45.42;21.00;;;;;;;;;;5077571;28;20124;-67
2021/09/11 05:57:21;;;;;;;41.97;21.42;;;;;;;;;;5063121;28;20144;-67
2021/09/11 05:59:47;;;;;;;47.58;21.60;;;;;;;;;;5058177;28;20043;-67
2021/09/11 06:02:13;;;;;;;42.25;22.58;;;;;;;;;;5060793;28;20036;-67
2021/09/11 06:04:39;;;;;;;47.92;23.95;;;;;;;;;;5058117;28;20040;-67
2021/09/11 06:07:05;;;;;;;43.10;22.30;;;;;;;;;;5062206;28;20088;-67
2021/09/11 06:09:33;;;;;;;42.92;23.30;;;;;;;;;;5077202;28;20052;-67
2021/09/11 06:11:59;;;;;;;50.67;23.65;;;;;;;;;;5058348;28;20105;-67
2021/09/11 06:14:25;;;;;;;47.28;24.92;;;;;;;;;;5079399;28;20040;-68
2021/09/11 06:16:52;;;;;;;48.70;26.83;;;;;;;;;;5058140;28;20536;-68
2021/09/11 06:19:18;;;;;;;55.53;27.73;;;;;;;;;;5058844;28;20051;-68
2021/09/11 06:21:44;;;;;;;58.25;28.42;;;;;;;;;;5057214;28;20052;-68
2021/09/11 06:24:10;;;;;;;51.10;28.52;;;;;;;;;;5061085;28;20332;-69
2021/09/11 06:26:36;;;;;;;60.30;27.75;;;;;;;;;;5077679;28;20064;-68
2021/09/11 06:29:02;;;;;;;52.97;28.40;;;;;;;;;;5058397;28;20048;-69
2021/09/11 06:31:29;;;;;;;51.33;26.83;;;;;;;;;;5080056;28;20036;-69
2021/09/11 06:33:55;;;;;;;50.90;27.83;;;;;;;;;;5075772;28;20056;-68
2021/09/11 06:36:21;;;;;;;56.83;30.30;;;;;;;;;;5078578;28;20044;-69
2021/09/11 06:38:47;;;;;;;65.30;29.88;;;;;;;;;;5061998;28;20437;-68
2021/09/11 06:41:13;;;;;;;59.60;30.60;;;;;;;;;;5094922;28;20040;-68
2021/09/11 06:43:39;;;;;;;60.67;31.92;;;;;;;;;;5076026;28;20093;-68
2021/09/11 06:46:06;;;;;;;63.58;31.70;;;;;;;;;;5093725;28;20162;-68
2021/09/11 06:48:33;;;;;;;62.13;32.70;;;;;;;;;;5101146;28;20059;-68
2021/09/11 06:50:59;;;;;;;68.70;32.75;;;;;;;;;;5098603;28;20130;-67
2021/09/11 06:53:25;;;;;;;56.10;31.15;;;;;;;;;;5074406;28;20047;-68
2021/09/11 06:55:51;;;;;;;68.43;34.15;;;;;;;;;;5092369;28;20048;-68
2021/09/11 06:58:18;;;;;;;67.97;31.77;;;;;;;;;;5078455;28;21230;-68
2021/09/11 07:00:44;;;;;;;71.53;32.63;;;;;;;;;;5075674;28;20050;-67
2021/09/11 07:03:10;;;;;;;75.15;33.92;;;;;;;;;;5079188;28;20469;-72
2021/09/11 07:05:36;;;;;;;63.25;33.13;;;;;;;;;;5098409;28;20036;-67
2021/09/11 07:08:02;;;;;;;73.13;34.28;;;;;;;;;;5072628;28;20447;-68
2021/09/11 07:10:28;;;;;;;72.10;34.22;;;;;;;;;;5095615;28;20074;-68
2021/09/11 07:12:55;;;;;;;66.50;34.35;;;;;;;;;;5095683;28;20578;-68
2021/09/11 07:15:21;;;;;;;62.88;32.08;;;;;;;;;;5096781;28;20036;-68
2021/09/11 07:17:47;;;;;;;59.83;30.88;;;;;;;;;;5080614;28;20055;-68
2021/09/11 07:20:13;;;;;;;61.00;32.35;;;;;;;;;;5077350;28;20081;-68
2021/09/11 07:22:39;;;;;;;57.90;30.83;;;;;;;;;;5084031;28;20059;-68
2021/09/11 07:25:06;;;;;;;70.32;30.58;;;;;;;;;;5074102;28;20082;-68
2021/09/11 07:27:32;;;;;;;45.50;24.73;;;;;;;;;;5097061;28;20495;-68
2021/09/11 07:29:59;;;;;;;41.65;24.17;;;;;;;;;;5079946;28;20144;-68
2021/09/11 07:32:26;;;;;;;45.08;25.90;;;;;;;;;;5068441;28;20057;-68
2021/09/11 07:34:52;;;;;;;54.03;26.60;;;;;;;;;;5071523;28;20098;-68
2021/09/11 07:37:18;;;;;;;46.47;25.58;;;;;;;;;;5077647;28;20162;-68
2021/09/11 07:39:45;;;;;;;47.58;25.67;;;;;;;;;;5076600;28;20032;-68
2021/09/11 07:42:11;;;;;;;44.85;24.75;;;;;;;;;;5069581;28;20491;-68
2021/09/11 07:44:37;;;;;;;39.80;23.70;;;;;;;;;;5082271;28;20041;-68
2021/09/11 07:47:03;;;;;;;44.30;24.58;;;;;;;;;;5073697;28;20044;-68
2021/09/11 07:49:29;;;;;;;43.55;25.00;;;;;;;;;;5074431;28;20154;-67
2021/09/11 07:51:55;;;;;;;45.05;24.45;;;;;;;;;;5079530;28;20119;-67
2021/09/11 07:54:22;;;;;;;44.10;24.73;;;;;;;;;;5075050;28;20119;-68
2021/09/11 07:56:48;;;;;;;42.97;23.02;;;;;;;;;;5077007;28;20044;-68
2021/09/11 07:59:14;;;;;;;43.58;23.63;;;;;;;;;;5077794;28;20055;-68
2021/09/11 08:01:40;;;;;;;46.55;25.00;;;;;;;;;;5081602;28;20047;-68
2021/09/11 08:04:06;;;;;;;43.35;24.05;;;;;;;;;;5074721;28;20047;-68
2021/09/11 08:06:32;;;;;;;37.30;23.00;;;;;;;;;;5077304;28;20396;-68
2021/09/11 08:08:59;;;;;;;38.55;23.75;;;;;;;;;;5080085;28;20044;-68
2021/09/11 08:11:25;;;;;;;37.95;22.98;;;;;;;;;;5083084;28;20074;-68
2021/09/11 08:13:53;;;;;;;41.70;25.52;;;;;;;;;;5077790;28;20170;-68
2021/09/11 08:16:19;;;;;;;37.55;24.52;;;;;;;;;;5080760;28;20547;-68
2021/09/11 08:18:45;;;;;;;39.35;26.00;;;;;;;;;;5076091;28;20530;-67
2021/09/11 08:21:12;;;;;;;50.20;29.77;;;;;;;;;;5078550;28;20048;-68
2021/09/11 08:23:40;;;;;;;48.55;29.60;;;;;;;;;;5079767;28;20533;-68
2021/09/11 08:26:06;;;;;;;56.08;32.15;;;;;;;;;;5079718;28;20041;-67
2021/09/11 08:28:33;;;;;;;44.63;30.83;;;;;;;;;;5083851;28;20048;-67
2021/09/11 08:30:59;;;;;;;58.58;34.17;;;;;;;;;;5080256;28;20043;-67
2021/09/11 08:33:25;;;;;;;56.40;32.10;;;;;;;;;;5096796;28;20059;-67
2021/09/11 08:35:51;;;;;;;52.05;33.45;;;;;;;;;;5098734;28;20063;-67
2021/09/11 08:38:18;;;;;;;52.83;33.15;;;;;;;;;;5099006;28;20079;-67
2021/09/11 08:40:44;;;;;;;55.35;32.45;;;;;;;;;;5102289;28;20055;-68
2021/09/11 08:43:10;;;;;;;46.97;30.30;;;;;;;;;;5079510;28;20036;-68
2021/09/11 08:45:36;;;;;;;51.35;31.75;;;;;;;;;;5078204;28;20076;-67
2021/09/11 08:48:03;;;;;;;53.33;30.88;;;;;;;;;;5100441;28;20402;-68
2021/09/11 08:50:30;;;;;;;55.20;30.42;;;;;;;;;;5082365;28;20047;-68
2021/09/11 08:52:56;;;;;;;48.53;29.80;;;;;;;;;;5082496;28;20511;-67
2021/09/11 08:55:22;;;;;;;41.50;28.17;;;;;;;;;;5096808;28;20047;-69
2021/09/11 08:57:57;;;;;;;38.70;25.52;;;;;;;;;;5084266;28;20114;-68
2021/09/11 09:00:35;;;;;;;38.42;23.83;;;;;;;;;;5101634;28;20055;-68
2021/09/11 09:03:01;;;;;;;44.38;24.60;;;;;;;;;;5083470;28;20071;-67
2021/09/11 09:05:27;;;;;;;37.90;22.75;;;;;;;;;;5104312;28;20070;-67
2021/09/11 09:07:53;;;;;;;39.55;23.23;;;;;;;;;;5088214;28;20505;-67
2021/09/11 09:10:20;;;;;;;34.72;22.90;;;;;;;;;;5081953;28;20039;-67
2021/09/11 09:12:47;;;;;;;31.50;22.77;;;;;;;;;;5105013;28;20483;-67
2021/09/11 09:15:15;;;;;;;32.45;21.77;;;;;;;;;;5101664;28;20051;-67
2021/09/11 09:17:42;;;;;;;36.42;22.33;;;;;;;;;;5101901;28;20048;-67
2021/09/11 09:20:17;;;;;;;34.03;22.77;;;;;;;;;;5104478;28;20458;-67
2021/09/11 09:22:44;;;;;;;36.47;23.48;;;;;;;;;;5096114;28;20050;-67
2021/09/11 09:25:20;;;;;;;43.17;25.80;;;;;;;;;;5077104;28;20040;-68
2021/09/11 09:27:52;;;;;;;47.00;27.95;;;;;;;;;;5103593;28;20046;-67
2021/09/11 09:30:20;;;;;;;62.53;32.58;;;;;;;;;;5063015;28;20085;-68
2021/09/11 09:32:49;;;;;;;71.25;32.80;;;;;;;;;;5078702;28;20113;-68
2021/09/11 09:35:18;;;;;;;59.28;32.42;;;;;;;;;;5075938;28;20042;-68
2021/09/11 09:38:09;;;;;;;52.22;32.00;;;;;;;;;;5079880;28;20052;-68
2021/09/11 09:40:39;;;;;;;65.93;36.35;;;;;;;;;;5077592;28;20133;-68
2021/09/11 09:43:06;;;;;;;102.90;41.03;;;;;;;;;;5078880;28;20044;-68
2021/09/11 09:45:33;;;;;;;93.20;42.08;;;;;;;;;;5072496;28;20044;-67
2021/09/11 09:48:00;;;;;;;89.38;42.35;;;;;;;;;;5082778;28;20462;-68
2021/09/11 09:50:30;;;;;;;104.40;43.80;;;;;;;;;;5081968;28;20388;-68
2021/09/11 09:52:56;;;;;;;69.60;37.95;;;;;;;;;;5075825;28;20052;-67
2021/09/11 09:55:22;;;;;;;79.20;40.17;;;;;;;;;;5059129;28;21249;-68
2021/09/11 09:57:49;;;;;;;125.93;45.63;;;;;;;;;;5081444;28;20581;-67
2021/09/11 10:00:15;;;;;;;110.97;43.70;;;;;;;;;;5080566;28;20082;-68
2021/09/11 10:02:41;;;;;;;112.70;42.75;;;;;;;;;;5080208;28;20045;-68
2021/09/11 10:05:08;;;;;;;148.25;49.47;;;;;;;;;;5078884;28;20036;-68
2021/09/11 10:07:35;;;;;;;120.00;43.78;;;;;;;;;;5072707;28;20048;-69
2021/09/11 10:10:01;;;;;;;95.40;42.50;;;;;;;;;;5081492;28;20122;-68
2021/09/11 10:12:29;;;;;;;97.28;40.00;;;;;;;;;;5062140;28;20031;-68
2021/09/11 10:15:15;;;;;;;88.03;38.75;;;;;;;;;;5075141;28;20062;-69
2021/09/11 10:17:41;;;;;;;78.65;37.13;;;;;;;;;;5074079;28;20126;-69
2021/09/11 10:20:08;;;;;;;78.97;37.20;;;;;;;;;;5076760;28;20513;-69
2021/09/11 10:22:37;;;;;;;71.72;34.00;;;;;;;;;;5075526;28;20032;-69
2021/09/11 10:25:04;;;;;;;66.53;33.08;;;;;;;;;;5077104;28;20040;-69
2021/09/11 10:27:35;;;;;;;61.30;30.65;;;;;;;;;;5075528;28;20569;-68
2021/09/11 10:30:05;;;;;;;69.15;31.42;;;;;;;;;;5076220;28;20556;-69
2021/09/11 10:32:36;;;;;;;62.83;31.08;;;;;;;;;;5074757;28;20040;-68
2021/09/11 10:35:02;;;;;;;59.38;31.27;;;;;;;;;;5075444;28;20080;-69
2021/09/11 10:37:31;;;;;;;67.32;31.88;;;;;;;;;;5074510;28;20450;-69
2021/09/11 10:40:12;;;;;;;61.85;32.42;;;;;;;;;;5075442;28;20052;-69
2021/09/11 10:43:15;;;;;;;57.10;30.33;;;;;;;;;;5078610;28;20048;-69
2021/09/11 10:45:41;;;;;;;48.55;27.15;;;;;;;;;;5073593;28;20444;-69
2021/09/11 10:48:27;;;;;;;52.22;28.13;;;;;;;;;;5074606;28;20131;-69
2021/09/11 10:50:54;;;;;;;38.60;23.77;;;;;;;;;;5074149;28;20131;-69
2021/09/11 10:53:21;;;;;;;48.67;27.58;;;;;;;;;;5074578;28;20036;-69
2021/09/11 10:55:48;;;;;;;53.97;27.77;;;;;;;;;;5074795;28;20052;-69
2021/09/11 10:58:22;;;;;;;49.13;27.08;;;;;;;;;;5082760;28;20072;-69
2021/09/11 11:00:57;;;;;;;51.92;27.65;;;;;;;;;;5076673;28;20450;-69
2021/09/11 11:03:23;;;;;;;43.58;26.40;;;;;;;;;;5073510;28;20530;-69
2021/09/11 11:06:05;;;;;;;46.28;26.92;;;;;;;;;;5076578;28;20523;-69
2021/09/11 11:08:33;;;;;;;46.42;26.92;;;;;;;;;;5074765;28;20082;-69
2021/09/11 11:11:05;;;;;;;36.28;22.98;;;;;;;;;;5076914;28;20039;-69
2021/09/11 11:13:31;;;;;;;37.67;22.00;;;;;;;;;;5074144;28;20108;-69
2021/09/11 11:15:58;;;;;;;35.80;20.15;;;;;;;;;;5074270;28;20052;-69
2021/09/11 11:18:28;;;;;;;31.60;21.17;;;;;;;;;;5073920;28;20044;-69
2021/09/11 11:20:54;;;;;;;42.55;23.60;;;;;;;;;;5073276;28;20062;-69
2021/09/11 11:23:21;;;;;;;41.20;21.85;;;;;;;;;;5079328;28;20177;-69
2021/09/11 11:25:50;;;;;;;38.38;21.05;;;;;;;;;;5078672;28;20369;-69
2021/09/11 11:28:18;;;;;;;39.97;21.27;;;;;;;;;;5082940;28;20123;-69
2021/09/11 11:30:47;;;;;;;38.38;20.80;;;;;;;;;;5073528;28;20046;-69
2021/09/11 11:33:13;;;;;;;31.75;18.80;;;;;;;;;;5081943;28;20531;-69
2021/09/11 11:35:40;;;;;;;31.55;18.60;;;;;;;;;;5077638;28;20168;-69
2021/09/11 11:38:06;;;;;;;28.70;17.95;;;;;;;;;;5078618;28;20043;-69
2021/09/11 11:40:32;;;;;;;28.00;17.88;;;;;;;;;;5098149;28;20083;-69
2021/09/11 11:43:05;;;;;;;24.90;17.33;;;;;;;;;;5077021;28;20048;-69
2021/09/11 11:45:32;;;;;;;25.85;16.75;;;;;;;;;;5098937;28;20142;-69
2021/09/11 11:48:02;;;;;;;27.70;16.98;;;;;;;;;;5099478;28;20044;-70
2021/09/11 11:50:30;;;;;;;29.85;17.67;;;;;;;;;;5085048;28;20039;-69
2021/09/11 11:53:01;;;;;;;25.58;17.48;;;;;;;;;;5097468;28;20051;-69
2021/09/11 11:55:29;;;;;;;26.95;18.10;;;;;;;;;;5096736;28;20109;-69
2021/09/11 11:58:11;;;;;;;27.58;18.65;;;;;;;;;;5080560;28;20093;-69
2021/09/11 12:00:39;;;;;;;29.38;19.38;;;;;;;;;;5080787;28;20048;-69
2021/09/11 12:03:05;;;;;;;30.25;20.58;;;;;;;;;;5078219;28;20072;-69
2021/09/11 12:05:31;;;;;;;31.77;21.27;;;;;;;;;;5076986;28;20047;-68
2021/09/11 12:08:02;;;;;;;31.88;20.70;;;;;;;;;;5073042;28;20164;-75
2021/09/11 12:10:30;;;;;;;32.92;21.27;;;;;;;;;;5096222;28;20101;-69
2021/09/11 12:12:57;;;;;;;30.00;21.02;;;;;;;;;;5079839;28;20443;-69
2021/09/11 12:15:25;;;;;;;34.78;21.67;;;;;;;;;;5094189;28;20478;-69
2021/09/11 12:17:53;;;;;;;37.00;21.25;;;;;;;;;;5078408;28;20135;-69
2021/09/11 12:20:20;;;;;;;30.48;19.95;;;;;;;;;;5074780;28;20119;-69
2021/09/11 12:23:01;;;;;;;30.92;19.85;;;;;;;;;;5093441;28;20093;-69
2021/09/11 12:25:28;;;;;;;29.23;19.60;;;;;;;;;;5093761;28;20115;-69
2021/09/11 12:27:54;;;;;;;27.60;19.75;;;;;;;;;;5095083;28;20040;-69
2021/09/11 12:30:20;;;;;;;34.65;22.13;;;;;;;;;;5101511;28;20549;-69
2021/09/11 12:32:50;;;;;;;221.07;59.03;;;;;;;;;;5082879;28;20050;-69
2021/09/11 12:35:16;;;;;;;41.00;22.58;;;;;;;;;;5076691;28;20044;-69
2021/09/11 12:37:51;;;;;;;150.15;52.17;;;;;;;;;;5075729;28;20558;-69
2021/09/11 12:40:17;;;;;;;27.58;17.88;;;;;;;;;;5076599;28;20121;-69
2021/09/11 12:42:44;;;;;;;28.50;18.15;;;;;;;;;;5077380;28;20370;-69
2021/09/11 12:45:11;;;;;;;28.00;18.63;;;;;;;;;;5079528;28;20052;-69
2021/09/11 12:47:37;;;;;;;26.35;18.38;;;;;;;;;;5077275;28;20087;-69
2021/09/11 12:50:04;;;;;;;27.83;18.38;;;;;;;;;;5077716;28;20036;-69
2021/09/11 12:52:30;;;;;;;27.38;19.35;;;;;;;;;;5079565;28;20068;-72
2021/09/11 12:54:56;;;;;;;23.55;16.95;;;;;;;;;;5079047;28;20071;-69
2021/09/11 12:57:23;;;;;;;29.50;17.83;;;;;;;;;;5083782;28;20151;-69
2021/09/11 12:59:49;;;;;;;27.42;18.88;;;;;;;;;;5076003;28;20051;-69
2021/09/11 13:02:17;;;;;;;27.15;18.85;;;;;;;;;;5081435;28;20044;-69
2021/09/11 13:04:43;;;;;;;29.27;19.33;;;;;;;;;;5081256;28;20052;-69
2021/09/11 13:07:09;;;;;;;31.17;19.13;;;;;;;;;;5080440;28;20459;-69
2021/09/11 13:09:36;;;;;;;27.10;18.25;;;;;;;;;;5083515;28;20124;-71
2021/09/11 13:12:02;;;;;;;25.45;17.67;;;;;;;;;;5080509;28;20398;-69
2021/09/11 13:14:28;;;;;;;31.02;19.75;;;;;;;;;;5075419;28;20140;-69
2021/09/11 13:16:55;;;;;;;26.35;17.67;;;;;;;;;;5074056;28;20072;-69
2021/09/11 13:19:21;;;;;;;25.83;17.05;;;;;;;;;;5079513;28;20566;-69
2021/09/11 13:21:47;;;;;;;23.60;16.83;;;;;;;;;;5076072;28;20048;-69
2021/09/11 13:24:13;;;;;;;27.58;19.20;;;;;;;;;;5076016;28;20127;-69
2021/09/11 13:26:39;;;;;;;26.92;19.80;;;;;;;;;;5078180;28;20094;-68
2021/09/11 13:29:06;;;;;;;29.92;21.60;;;;;;;;;;5078426;28;20045;-69
2021/09/11 13:31:35;;;;;;;28.88;20.58;;;;;;;;;;5077702;28;20483;-68
2021/09/11 13:34:01;;;;;;;28.85;21.17;;;;;;;;;;5100391;28;20399;-69
2021/09/11 13:36:28;;;;;;;32.50;21.35;;;;;;;;;;5100793;28;20046;-69
2021/09/11 13:38:54;;;;;;;35.70;23.83;;;;;;;;;;5096450;28;20547;-69
2021/09/11 13:41:22;;;;;;;39.22;25.98;;;;;;;;;;5084104;28;20149;-69
2021/09/11 13:43:48;;;;;;;37.38;24.67;;;;;;;;;;5102600;28;20035;-69
2021/09/11 13:46:15;;;;;;;38.55;24.65;;;;;;;;;;5080355;28;20364;-69
2021/09/11 13:48:44;;;;;;;43.65;26.50;;;;;;;;;;5077886;28;20471;-68
2021/09/11 13:51:11;;;;;;;39.55;24.65;;;;;;;;;;5075866;28;20040;-69
2021/09/11 13:53:37;;;;;;;40.20;26.70;;;;;;;;;;5083503;28;20052;-69
2021/09/11 13:56:03;;;;;;;43.30;26.35;;;;;;;;;;5081326;28;20075;-69
2021/09/11 13:58:29;;;;;;;42.83;26.77;;;;;;;;;;5094439;28;20437;-69
2021/09/11 14:00:56;;;;;;;38.05;25.92;;;;;;;;;;5084379;28;20047;-69
2021/09/11 14:03:22;;;;;;;47.15;27.00;;;;;;;;;;5075614;28;20131;-69
2021/09/11 14:05:48;;;;;;;44.17;27.38;;;;;;;;;;5076598;28;20051;-68
2021/09/11 14:08:14;;;;;;;44.00;29.67;;;;;;;;;;5079534;28;20039;-69
2021/09/11 14:10:41;;;;;;;44.53;28.08;;;;;;;;;;5077230;28;20399;-69
2021/09/11 14:13:07;;;;;;;47.30;27.70;;;;;;;;;;5093472;28;20043;-69
2021/09/11 14:15:33;;;;;;;48.28;29.33;;;;;;;;;;5096161;28;20039;-69